Higginsport, Ohio
Current Conditions -  °F | °C
As of 6:55 AM on Saturday 25 Oct 2014 (Local Time) from KFGX Reporting Station
Clear Clear  
Wind Chill:   Ceiling: Unl
Heat Index:   Visibility: 10mi
Dew Point:   Wind: 7mph
Humidity: 85%   Direction: 200°SSW
Pressure: 30.04"   Gusts: NA
Location:  38.79°N, 83.97°W
Report Text: KFGX 251055Z AUTO 20006KT 10SM CLR 07/05 A3004 RMK AO2 T00690045
Loading
Personal Weather Stations






























Interactive Weather Map
Tropical Storm Tracking
New forecast layout! Learn more

10-Day Weather Forecast

Advertisements
Track Severe Weather on mobile